createdAt,value
2023-03-21T00:01:54.683Z,5.30
2023-03-21T00:04:23.802Z,5.28
2023-03-21T00:06:53.437Z,5.32
2023-03-21T00:09:20.783Z,4.92
2023-03-21T00:11:48.375Z,5.33
2023-03-21T00:14:20.829Z,5.34
2023-03-21T00:16:50.838Z,5.22
2023-03-21T00:19:20.910Z,5.27
2023-03-21T00:22:03.607Z,5.14
2023-03-21T00:24:32.885Z,5.07
2023-03-21T00:27:10.744Z,5.32
2023-03-21T00:29:51.612Z,4.95
2023-03-21T00:32:19.223Z,5.14
2023-03-21T00:35:01.533Z,5.43
2023-03-21T00:37:33.350Z,5.39
2023-03-21T00:40:00.421Z,5.23
2023-03-21T00:42:27.988Z,5.25
2023-03-21T00:44:54.686Z,5.57
2023-03-21T00:47:21.368Z,4.97
2023-03-21T00:49:49.912Z,5.43
2023-03-21T00:52:24.790Z,5.26
2023-03-21T00:55:01.542Z,5.54
2023-03-21T00:57:38.152Z,5.08
2023-03-21T01:00:10.650Z,5.26
2023-03-21T01:02:38.015Z,5.18
2023-03-21T01:05:05.442Z,5.17
2023-03-21T01:07:32.256Z,5.26
2023-03-21T01:09:58.891Z,5.15
2023-03-21T01:12:25.723Z,4.99
2023-03-21T01:14:52.368Z,5.25
2023-03-21T01:17:18.995Z,4.97
2023-03-21T01:19:52.130Z,4.83
2023-03-21T01:22:19.837Z,4.93
2023-03-21T01:24:55.151Z,4.70
2023-03-21T01:27:25.552Z,4.57
2023-03-21T01:29:52.289Z,4.20
2023-03-21T01:32:18.934Z,4.72
2023-03-21T01:34:45.557Z,4.65
2023-03-21T01:37:12.227Z,4.83
2023-03-21T01:39:45.702Z,4.51
2023-03-21T01:42:15.540Z,4.65
2023-03-21T01:44:52.855Z,4.80
2023-03-21T01:47:19.748Z,4.56
2023-03-21T01:49:51.448Z,4.18
2023-03-21T01:52:36.596Z,3.73
2023-03-21T01:55:13.664Z,3.72
2023-03-21T01:58:06.862Z,3.95
2023-03-21T02:00:53.974Z,3.97
2023-03-21T02:03:50.354Z,3.95
2023-03-21T02:06:55.488Z,3.98
2023-03-21T02:09:34.671Z,4.21
2023-03-21T02:12:02.637Z,4.15
2023-03-21T02:14:34.567Z,4.23
2023-03-21T02:17:31.765Z,3.82
2023-03-21T02:20:15.167Z,4.17
2023-03-21T02:23:15.519Z,4.26
2023-03-21T02:26:00.934Z,4.22
2023-03-21T02:28:55.812Z,4.13
2023-03-21T02:31:22.437Z,4.40
2023-03-21T02:34:01.805Z,4.41
2023-03-21T02:36:28.696Z,4.29
2023-03-21T02:39:08.001Z,3.64
2023-03-21T02:41:50.526Z,3.71
2023-03-21T02:44:53.907Z,4.00
2023-03-21T02:47:42.142Z,4.08
2023-03-21T02:50:18.946Z,3.82
2023-03-21T02:52:48.331Z,4.09
2023-03-21T02:55:21.966Z,3.93
2023-03-21T02:58:06.884Z,3.91
2023-03-21T03:00:39.364Z,3.83
2023-03-21T03:03:10.525Z,3.74
2023-03-21T03:05:50.298Z,3.85
2023-03-21T03:08:38.520Z,3.86
2023-03-21T03:11:28.813Z,3.77
2023-03-21T03:14:21.018Z,3.79
2023-03-21T03:17:18.187Z,3.58
2023-03-21T03:19:57.370Z,3.82
2023-03-21T03:22:31.674Z,3.80
2023-03-21T03:25:39.512Z,3.39
2023-03-21T03:28:09.679Z,3.72
2023-03-21T03:30:44.952Z,3.70
2023-03-21T03:33:17.946Z,3.43
2023-03-21T03:35:53.025Z,3.75
2023-03-21T03:38:27.688Z,3.42
2023-03-21T03:41:03.333Z,3.30
2023-03-21T03:43:59.432Z,3.67
2023-03-21T03:46:43.023Z,3.67
2023-03-21T03:49:21.354Z,3.60
2023-03-21T03:52:11.798Z,3.68
2023-03-21T03:54:46.367Z,3.40
2023-03-21T03:57:14.278Z,3.61
2023-03-21T03:59:43.597Z,3.64
2023-03-21T04:02:30.196Z,3.85
2023-03-21T04:04:57.838Z,3.72
2023-03-21T04:07:25.200Z,3.96
2023-03-21T04:09:53.762Z,3.70
2023-03-21T04:12:21.122Z,3.99
2023-03-21T04:15:11.520Z,3.96
2023-03-21T04:17:42.782Z,4.05
2023-03-21T04:20:15.039Z,3.70
2023-03-21T04:22:45.805Z,3.87
2023-03-21T04:25:21.837Z,3.73
2023-03-21T04:27:49.704Z,3.49
2023-03-21T04:30:37.787Z,3.89
2023-03-21T04:33:13.353Z,3.82
2023-03-21T04:35:45.938Z,3.63
2023-03-21T04:38:14.022Z,3.62
2023-03-21T04:40:40.689Z,3.18
2023-03-21T04:43:07.465Z,2.90
2023-03-21T04:45:37.532Z,3.14
2023-03-21T04:48:04.414Z,3.38
2023-03-21T04:50:32.355Z,3.58
2023-03-21T04:52:59.921Z,3.52
2023-03-21T04:55:28.063Z,3.09
2023-03-21T04:57:54.862Z,3.24
2023-03-21T05:00:23.077Z,3.25
2023-03-21T05:02:49.832Z,3.07
2023-03-21T05:05:16.558Z,3.41
2023-03-21T05:07:43.200Z,3.15
2023-03-21T05:10:12.023Z,3.46
2023-03-21T05:12:41.265Z,3.46
2023-03-21T05:15:09.632Z,3.10
2023-03-21T05:17:37.191Z,2.84
2023-03-21T05:20:24.406Z,2.76
2023-03-21T05:22:51.988Z,2.60
2023-03-21T05:25:21.246Z,2.90
2023-03-21T05:28:08.082Z,2.79
2023-03-21T05:30:35.294Z,2.99
2023-03-21T05:33:02.835Z,2.74
2023-03-21T05:35:29.731Z,2.81
2023-03-21T05:37:59.095Z,3.12
2023-03-21T05:40:28.644Z,2.97
2023-03-21T05:43:00.696Z,3.04
2023-03-21T05:45:27.487Z,3.26
2023-03-21T05:47:55.678Z,3.19
2023-03-21T05:50:26.269Z,2.89
2023-03-21T05:53:07.946Z,2.99
2023-03-21T05:55:34.975Z,2.88
2023-03-21T05:58:02.558Z,2.95
2023-03-21T06:00:30.780Z,3.03
2023-03-21T06:03:20.505Z,3.24
2023-03-21T06:06:05.616Z,3.48
2023-03-21T06:08:48.969Z,3.43
2023-03-21T06:11:28.732Z,3.43
2023-03-21T06:14:16.827Z,3.54
2023-03-21T06:16:45.355Z,3.40
2023-03-21T06:19:12.934Z,2.67
2023-03-21T06:21:57.835Z,3.83
2023-03-21T06:24:25.201Z,3.81
2023-03-21T06:26:52.098Z,3.97
2023-03-21T06:29:18.933Z,3.80
2023-03-21T06:31:48.858Z,3.70
2023-03-21T06:34:16.403Z,4.05
2023-03-21T06:36:44.766Z,4.07
2023-03-21T06:39:13.867Z,4.25
2023-03-21T06:41:41.074Z,4.51
2023-03-21T06:44:07.814Z,4.44
2023-03-21T06:46:42.521Z,4.74
2023-03-21T06:49:09.297Z,4.53
2023-03-21T06:51:36.044Z,4.63
2023-03-21T06:54:09.785Z,5.04
2023-03-21T06:56:41.548Z,4.72
2023-03-21T06:59:11.320Z,5.13
2023-03-21T07:01:50.223Z,4.99
2023-03-21T07:04:16.865Z,5.17
2023-03-21T07:06:43.863Z,5.06
2023-03-21T07:09:10.953Z,5.13
2023-03-21T07:11:38.298Z,5.22
2023-03-21T07:14:06.500Z,5.21
2023-03-21T07:16:33.280Z,5.06
2023-03-21T07:19:00.032Z,5.34
2023-03-21T07:21:26.712Z,5.53
2023-03-21T07:23:53.790Z,5.30
2023-03-21T07:26:20.715Z,5.78
2023-03-21T07:28:47.466Z,5.72
2023-03-21T07:31:16.696Z,5.98
2023-03-21T07:33:43.747Z,5.97
2023-03-21T07:36:13.064Z,6.37
2023-03-21T07:38:41.129Z,6.44
2023-03-21T07:41:08.017Z,6.40
2023-03-21T07:43:37.130Z,6.69
2023-03-21T07:46:09.421Z,6.87
2023-03-21T07:48:37.213Z,6.91
2023-03-21T07:51:04.215Z,6.85
2023-03-21T07:53:31.111Z,7.03
2023-03-21T07:56:00.657Z,6.98
2023-03-21T07:58:28.463Z,7.17
2023-03-21T08:00:56.607Z,7.41
2023-03-21T08:03:24.008Z,7.57
2023-03-21T08:05:51.080Z,7.81
2023-03-21T08:08:18.003Z,7.84
2023-03-21T08:10:45.050Z,8.10
2023-03-21T08:13:12.475Z,7.99
2023-03-21T08:15:42.031Z,8.09
2023-03-21T08:18:10.012Z,8.33
2023-03-21T08:20:36.840Z,8.30
2023-03-21T08:23:03.601Z,8.19
2023-03-21T08:25:30.871Z,8.04
2023-03-21T08:27:57.504Z,8.29
2023-03-21T08:30:26.431Z,8.29
2023-03-21T08:33:00.463Z,8.29
2023-03-21T08:35:27.838Z,8.94
2023-03-21T08:37:54.506Z,8.63
2023-03-21T08:40:21.191Z,8.83
2023-03-21T08:42:47.980Z,8.74
2023-03-21T08:45:16.567Z,8.91
2023-03-21T08:47:43.632Z,8.65
2023-03-21T08:50:14.398Z,8.73
2023-03-21T08:52:41.508Z,8.61
2023-03-21T08:55:09.153Z,8.86
2023-03-21T08:57:36.252Z,8.59
2023-03-21T09:00:14.850Z,8.61
2023-03-21T09:02:42.699Z,8.84
2023-03-21T09:05:11.867Z,8.67
2023-03-21T09:07:39.980Z,8.94
2023-03-21T09:10:25.346Z,9.22
2023-03-21T09:12:54.608Z,9.19
2023-03-21T09:15:24.779Z,9.33
2023-03-21T09:17:54.133Z,9.46
2023-03-21T09:20:30.625Z,9.34
2023-03-21T09:22:58.782Z,9.50
2023-03-21T09:25:25.596Z,9.04
2023-03-21T09:27:53.760Z,9.42
2023-03-21T09:30:24.787Z,9.77
2023-03-21T09:32:53.642Z,9.19
2023-03-21T09:35:21.140Z,9.56
2023-03-21T09:37:49.004Z,9.66
2023-03-21T09:40:29.841Z,9.97
2023-03-21T09:43:17.128Z,10.13
2023-03-21T09:45:54.875Z,10.08
2023-03-21T09:48:57.088Z,10.10
2023-03-21T09:51:28.705Z,9.98
2023-03-21T09:53:57.676Z,10.08
2023-03-21T09:56:26.056Z,10.05
2023-03-21T09:58:59.336Z,10.17
2023-03-21T10:01:29.844Z,10.42
2023-03-21T10:04:00.150Z,10.38
2023-03-21T10:06:31.719Z,10.53
2023-03-21T10:09:07.288Z,10.69
2023-03-21T10:11:50.423Z,10.58
2023-03-21T10:14:32.304Z,10.80
2023-03-21T10:17:04.214Z,10.87
2023-03-21T10:19:30.981Z,11.07
2023-03-21T10:22:01.107Z,10.89
2023-03-21T10:24:31.355Z,11.05
2023-03-21T10:26:58.656Z,10.53
2023-03-21T10:29:30.570Z,11.03
2023-03-21T10:31:57.415Z,10.93
2023-03-21T10:34:36.694Z,11.09
2023-03-21T10:37:05.499Z,10.78
2023-03-21T10:39:44.056Z,10.55
2023-03-21T10:42:18.097Z,10.90
2023-03-21T10:44:51.339Z,10.87
2023-03-21T10:47:24.746Z,10.29
2023-03-21T10:50:08.805Z,10.97
2023-03-21T10:52:38.450Z,10.70
2023-03-21T10:55:18.614Z,10.99
2023-03-21T10:57:47.265Z,11.20
2023-03-21T11:00:21.706Z,11.27
2023-03-21T11:02:51.341Z,11.59
2023-03-21T11:05:34.832Z,11.49
2023-03-21T11:08:18.641Z,11.66
2023-03-21T11:11:02.314Z,11.79
2023-03-21T11:13:34.988Z,11.73
2023-03-21T11:16:25.459Z,11.78
2023-03-21T11:18:56.969Z,12.04
2023-03-21T11:21:29.707Z,11.89
2023-03-21T11:23:57.478Z,12.40
2023-03-21T11:26:36.592Z,12.67
2023-03-21T11:29:20.897Z,12.93
2023-03-21T11:31:48.174Z,12.73
2023-03-21T11:34:32.901Z,13.19
2023-03-21T11:37:02.670Z,13.64
2023-03-21T11:39:39.942Z,13.67
2023-03-21T11:42:26.719Z,13.76
2023-03-21T11:45:01.599Z,13.45
2023-03-21T11:47:28.520Z,13.30
2023-03-21T11:50:04.626Z,13.54
2023-03-21T11:52:41.239Z,13.99
2023-03-21T11:55:11.390Z,13.77
2023-03-21T11:57:54.824Z,14.02
2023-03-21T12:00:57.956Z,14.15
2023-03-21T12:03:48.500Z,14.61
2023-03-21T12:06:22.507Z,14.93
2023-03-21T12:09:01.361Z,15.15
2023-03-21T12:11:37.499Z,15.17
2023-03-21T12:14:48.651Z,15.07
2023-03-21T12:17:53.294Z,15.25
2023-03-21T12:20:52.021Z,15.47
2023-03-21T12:23:27.759Z,15.28
2023-03-21T12:25:58.017Z,15.64
2023-03-21T12:28:39.909Z,15.88
2023-03-21T12:31:33.091Z,15.86
2023-03-21T12:33:59.691Z,15.60
2023-03-21T12:36:38.633Z,15.73
2023-03-21T12:39:11.132Z,16.02
2023-03-21T12:41:50.187Z,15.85
2023-03-21T12:44:21.319Z,16.51
2023-03-21T12:47:02.291Z,16.00
2023-03-21T12:49:35.061Z,16.28
2023-03-21T12:52:07.677Z,16.14
2023-03-21T12:55:18.751Z,16.18
2023-03-21T12:58:18.354Z,16.32
2023-03-21T13:00:48.877Z,16.69
2023-03-21T13:03:39.836Z,16.58
2023-03-21T13:06:09.639Z,16.85
2023-03-21T13:08:58.243Z,16.94
2023-03-21T13:11:27.930Z,17.07
2023-03-21T13:14:16.441Z,16.95
2023-03-21T13:17:06.693Z,16.64
2023-03-21T13:19:42.548Z,16.95
2023-03-21T13:22:15.055Z,16.98
2023-03-21T13:24:48.490Z,17.85
2023-03-21T13:27:36.344Z,17.22
2023-03-21T13:30:06.540Z,17.29
2023-03-21T13:32:41.681Z,17.15
2023-03-21T13:35:18.989Z,16.67
2023-03-21T13:38:21.880Z,17.22
2023-03-21T13:40:57.918Z,17.35
2023-03-21T13:43:42.948Z,17.85
2023-03-21T13:46:54.679Z,17.73
2023-03-21T13:49:36.656Z,18.03
2023-03-21T13:52:09.303Z,18.41
2023-03-21T13:54:39.031Z,18.30
2023-03-21T13:57:06.679Z,17.40
2023-03-21T13:59:44.710Z,18.43
2023-03-21T14:02:29.518Z,18.24
2023-03-21T14:05:17.407Z,17.83
2023-03-21T14:07:48.305Z,18.34
2023-03-21T14:10:42.175Z,18.58
2023-03-21T14:13:16.270Z,18.19
2023-03-21T14:15:55.370Z,18.33
2023-03-21T14:18:34.909Z,17.47
2023-03-21T14:21:24.324Z,17.32
2023-03-21T14:24:12.550Z,16.60
2023-03-21T14:26:47.005Z,15.89
2023-03-21T14:29:26.107Z,15.83
2023-03-21T14:31:56.420Z,15.94
2023-03-21T14:34:26.436Z,15.91
2023-03-21T14:36:58.325Z,15.90
2023-03-21T14:39:31.222Z,15.40
2023-03-21T14:42:11.538Z,16.25
2023-03-21T14:44:54.040Z,16.35
2023-03-21T14:47:27.791Z,15.42
2023-03-21T14:49:56.426Z,15.91
2023-03-21T14:52:33.192Z,16.06
2023-03-21T14:55:01.962Z,15.76
2023-03-21T14:57:33.218Z,15.54
2023-03-21T15:00:07.665Z,15.50
2023-03-21T15:02:36.796Z,15.27
2023-03-21T15:05:19.747Z,15.15
2023-03-21T15:08:08.115Z,14.82
2023-03-21T15:10:36.061Z,14.25
2023-03-21T15:13:15.141Z,15.26
2023-03-21T15:15:42.989Z,15.18
2023-03-21T15:18:16.405Z,15.30
2023-03-21T15:20:43.933Z,15.09
2023-03-21T15:23:21.352Z,15.40
2023-03-21T15:25:48.001Z,15.07
2023-03-21T15:28:14.894Z,15.08
2023-03-21T15:30:51.325Z,15.11
2023-03-21T15:33:19.081Z,14.72
2023-03-21T15:35:57.880Z,14.68
2023-03-21T15:38:41.582Z,14.10
2023-03-21T15:41:14.381Z,14.33
2023-03-21T15:43:42.127Z,14.34
2023-03-21T15:46:16.628Z,14.38
2023-03-21T15:48:44.278Z,14.32
2023-03-21T15:51:23.878Z,14.20
2023-03-21T15:53:54.133Z,13.55
2023-03-21T15:56:22.134Z,13.82
2023-03-21T15:58:52.593Z,13.73
2023-03-21T16:01:22.096Z,13.51
2023-03-21T16:03:56.677Z,13.86
2023-03-21T16:06:30.118Z,14.17
2023-03-21T16:09:08.898Z,14.21
2023-03-21T16:11:43.789Z,14.06
2023-03-21T16:14:10.943Z,13.93
2023-03-21T16:16:39.842Z,13.30
2023-03-21T16:19:07.502Z,13.54
2023-03-21T16:21:38.192Z,13.76
2023-03-21T16:24:06.656Z,13.85
2023-03-21T16:26:37.911Z,13.64
2023-03-21T16:29:07.143Z,13.25
2023-03-21T16:31:35.274Z,13.41
2023-03-21T16:34:01.946Z,13.66
2023-03-21T16:36:33.855Z,13.55
2023-03-21T16:39:00.536Z,13.41
2023-03-21T16:41:28.094Z,13.36
2023-03-21T16:43:55.339Z,13.45
2023-03-21T16:46:25.409Z,13.39
2023-03-21T16:48:58.680Z,13.30
2023-03-21T16:51:31.564Z,12.95
2023-03-21T16:53:58.563Z,12.60
2023-03-21T16:56:38.490Z,12.94
2023-03-21T16:59:06.045Z,12.91
2023-03-21T17:01:32.841Z,12.74
2023-03-21T17:04:00.130Z,12.46
2023-03-21T17:06:29.466Z,12.37
2023-03-21T17:08:57.738Z,12.40
2023-03-21T17:11:26.245Z,12.51
2023-03-21T17:13:54.921Z,12.43
2023-03-21T17:16:26.594Z,12.30
2023-03-21T17:18:54.051Z,12.02
2023-03-21T17:21:24.595Z,12.16
2023-03-21T17:23:51.980Z,12.11
2023-03-21T17:26:21.800Z,11.91
2023-03-21T17:28:48.977Z,11.87
2023-03-21T17:31:18.477Z,12.06
2023-03-21T17:33:45.930Z,11.69
2023-03-21T17:36:30.631Z,12.01
2023-03-21T17:38:57.943Z,12.15
2023-03-21T17:41:45.701Z,11.92
2023-03-21T17:44:12.382Z,11.93
2023-03-21T17:46:39.311Z,11.94
2023-03-21T17:49:06.548Z,11.87
2023-03-21T17:51:33.238Z,11.84
2023-03-21T17:54:00.437Z,11.95
2023-03-21T17:56:30.711Z,11.99
2023-03-21T17:58:59.676Z,12.00
2023-03-21T18:01:26.785Z,11.74
2023-03-21T18:03:56.699Z,11.82
2023-03-21T18:06:25.576Z,11.83
2023-03-21T18:08:53.600Z,11.70
2023-03-21T18:11:22.119Z,11.78
2023-03-21T18:13:48.945Z,11.84
2023-03-21T18:16:19.366Z,11.83
2023-03-21T18:18:46.723Z,11.86
2023-03-21T18:21:19.641Z,11.67
2023-03-21T18:23:47.835Z,11.43
2023-03-21T18:26:18.211Z,11.55
2023-03-21T18:28:46.778Z,11.57
2023-03-21T18:31:19.804Z,11.35
2023-03-21T18:33:48.630Z,11.35
2023-03-21T18:36:24.777Z,11.21
2023-03-21T18:38:52.643Z,11.01
2023-03-21T18:41:19.857Z,11.28
2023-03-21T18:44:12.966Z,11.22
2023-03-21T18:46:34.105Z,11.10
2023-03-21T18:49:15.080Z,11.13
2023-03-21T18:51:48.061Z,11.14
2023-03-21T18:54:20.558Z,10.91
2023-03-21T18:57:34.220Z,10.81
2023-03-21T18:59:41.208Z,11.07
2023-03-21T19:02:08.135Z,10.73
2023-03-21T19:04:37.543Z,10.81
2023-03-21T19:07:05.145Z,10.95
2023-03-21T19:09:32.278Z,11.02
2023-03-21T19:12:00.713Z,10.73
2023-03-21T19:14:28.047Z,10.64
2023-03-21T19:17:45.486Z,10.71
2023-03-21T19:19:43.565Z,10.58
2023-03-21T19:22:11.420Z,10.65
2023-03-21T19:24:39.718Z,10.06
2023-03-21T19:27:07.555Z,10.23
2023-03-21T19:29:34.428Z,10.29
2023-03-21T19:32:01.503Z,10.08
2023-03-21T19:34:32.492Z,10.00
2023-03-21T19:37:02.605Z,10.30
2023-03-21T19:39:29.552Z,10.04
2023-03-21T19:42:12.498Z,10.28
2023-03-21T19:44:42.514Z,9.98
2023-03-21T19:47:10.608Z,10.07
2023-03-21T19:50:27.302Z,10.10
2023-03-21T19:52:29.956Z,9.95
2023-03-21T19:54:56.908Z,9.94
2023-03-21T19:57:25.028Z,9.86
2023-03-21T19:59:54.652Z,9.73
2023-03-21T20:02:35.032Z,9.74
2023-03-21T20:05:02.463Z,9.83
2023-03-21T20:07:31.370Z,9.75
2023-03-21T20:09:58.349Z,9.92
2023-03-21T20:12:25.075Z,9.68
2023-03-21T20:14:56.020Z,9.67
2023-03-21T20:17:28.057Z,9.48
2023-03-21T20:19:58.182Z,9.60
2023-03-21T20:22:46.051Z,9.32
2023-03-21T20:25:12.102Z,9.40
2023-03-21T20:27:41.564Z,9.42
2023-03-21T20:30:14.958Z,9.44
2023-03-21T20:32:43.955Z,9.34
2023-03-21T20:35:21.021Z,9.26
2023-03-21T20:37:59.831Z,8.98
2023-03-21T20:40:26.643Z,9.15
2023-03-21T20:42:56.241Z,9.25
2023-03-21T20:45:22.903Z,9.19
2023-03-21T20:47:49.667Z,8.96
2023-03-21T20:50:22.240Z,8.97
2023-03-21T20:53:04.904Z,8.63
2023-03-21T20:55:37.064Z,9.00
2023-03-21T20:58:23.176Z,8.81
2023-03-21T21:00:59.395Z,8.85
2023-03-21T21:03:26.792Z,8.99
2023-03-21T21:05:54.131Z,9.00
2023-03-21T21:08:20.814Z,8.86
2023-03-21T21:11:19.113Z,8.94
2023-03-21T21:13:36.729Z,8.97
2023-03-21T21:16:05.959Z,9.11
2023-03-21T21:18:33.379Z,9.01
2023-03-21T21:21:05.200Z,8.93
2023-03-21T21:23:37.050Z,9.04
2023-03-21T21:26:04.743Z,9.06
2023-03-21T21:28:31.624Z,8.91
2023-03-21T21:31:14.464Z,8.72
2023-03-21T21:33:41.138Z,8.63
2023-03-21T21:36:09.337Z,8.30
2023-03-21T21:38:36.890Z,8.80
2023-03-21T21:41:04.040Z,8.71
2023-03-21T21:43:31.336Z,8.59
2023-03-21T21:45:58.004Z,8.55
2023-03-21T21:48:24.913Z,8.93
2023-03-21T21:50:54.090Z,9.06
2023-03-21T21:53:23.472Z,9.21
2023-03-21T21:55:51.114Z,8.87
2023-03-21T21:58:18.862Z,8.92
2023-03-21T22:00:47.234Z,9.14
2023-03-21T22:03:16.306Z,9.11
2023-03-21T22:05:44.469Z,9.10
2023-03-21T22:08:11.493Z,9.04
2023-03-21T22:10:38.635Z,8.74
2023-03-21T22:13:05.513Z,8.95
2023-03-21T22:15:33.271Z,8.99
2023-03-21T22:18:00.033Z,8.91
2023-03-21T22:20:26.848Z,8.83
2023-03-21T22:22:56.695Z,8.76
2023-03-21T22:25:23.691Z,8.54
2023-03-21T22:27:50.647Z,8.45
2023-03-21T22:30:18.632Z,8.43
2023-03-21T22:32:56.438Z,8.42
2023-03-21T22:35:29.423Z,8.27
2023-03-21T22:37:56.379Z,8.25
2023-03-21T22:40:24.298Z,8.23
2023-03-21T22:42:50.944Z,8.24
2023-03-21T22:45:17.774Z,7.92
2023-03-21T22:47:44.469Z,8.03
2023-03-21T22:50:11.241Z,8.08
2023-03-21T22:52:37.920Z,8.28
2023-03-21T22:55:05.051Z,8.39
2023-03-21T22:57:31.813Z,8.61
2023-03-21T22:59:58.594Z,8.88
2023-03-21T23:02:25.567Z,8.93
2023-03-21T23:04:52.459Z,8.77
2023-03-21T23:07:19.248Z,8.82
2023-03-21T23:09:45.989Z,8.72
2023-03-21T23:12:14.189Z,8.52
2023-03-21T23:14:40.920Z,8.16
2023-03-21T23:17:10.243Z,7.74
2023-03-21T23:19:37.808Z,8.00
2023-03-21T23:22:05.972Z,8.12
2023-03-21T23:24:32.630Z,8.08
2023-03-21T23:26:59.331Z,8.13
2023-03-21T23:29:26.031Z,7.85
2023-03-21T23:31:52.764Z,8.22
2023-03-21T23:34:19.700Z,8.27
2023-03-21T23:36:46.688Z,8.44
2023-03-21T23:39:13.458Z,8.58
2023-03-21T23:41:42.679Z,8.51
2023-03-21T23:44:09.465Z,8.27
2023-03-21T23:46:36.183Z,8.43
2023-03-21T23:49:03.038Z,8.46
2023-03-21T23:51:29.668Z,8.37
2023-03-21T23:53:57.199Z,8.17
2023-03-21T23:56:26.103Z,8.17
2023-03-21T23:58:52.880Z,8.04
